sensor_id;sensor_type;location;lat;lon;timestamp;temperature;humidity
63771;DHT22;60282;43.862;18.430;2023-02-18T00:01:24;2.60;99.90
63771;DHT22;60282;43.862;18.430;2023-02-18T00:03:50;-0.40;99.90
63771;DHT22;60282;43.862;18.430;2023-02-18T00:06:21;2.60;99.90
63771;DHT22;60282;43.862;18.430;2023-02-18T00:08:47;2.50;99.90
63771;DHT22;60282;43.862;18.430;2023-02-18T00:11:18;1.90;99.90
63771;DHT22;60282;43.862;18.430;2023-02-18T00:13:51;2.60;99.90
63771;DHT22;60282;43.862;18.430;2023-02-18T00:16:20;2.60;99.90
63771;DHT22;60282;43.862;18.430;2023-02-18T00:18:47;2.60;99.90
63771;DHT22;60282;43.862;18.430;2023-02-18T00:21:13;2.60;99.90
63771;DHT22;60282;43.862;18.430;2023-02-18T00:23:39;2.50;99.90
63771;DHT22;60282;43.862;18.430;2023-02-18T00:26:10;2.60;99.90
63771;DHT22;60282;43.862;18.430;2023-02-18T00:28:39;5.30;99.90
63771;DHT22;60282;43.862;18.430;2023-02-18T00:31:15;2.50;99.90
63771;DHT22;60282;43.862;18.430;2023-02-18T00:33:41;2.60;99.90
63771;DHT22;60282;43.862;18.430;2023-02-18T00:36:08;2.50;99.90
63771;DHT22;60282;43.862;18.430;2023-02-18T00:38:34;2.50;99.90
63771;DHT22;60282;43.862;18.430;2023-02-18T00:41:02;2.50;99.90
63771;DHT22;60282;43.862;18.430;2023-02-18T00:43:27;2.50;99.90
63771;DHT22;60282;43.862;18.430;2023-02-18T00:45:53;2.50;99.90
63771;DHT22;60282;43.862;18.430;2023-02-18T00:48:19;2.50;99.90
63771;DHT22;60282;43.862;18.430;2023-02-18T00:50:44;2.50;99.90
63771;DHT22;60282;43.862;18.430;2023-02-18T00:53:10;2.50;99.90
63771;DHT22;60282;43.862;18.430;2023-02-18T00:55:39;2.60;99.90
63771;DHT22;60282;43.862;18.430;2023-02-18T00:58:05;2.50;99.90
63771;DHT22;60282;43.862;18.430;2023-02-18T01:00:30;2.50;99.90
63771;DHT22;60282;43.862;18.430;2023-02-18T01:02:56;2.50;99.90
63771;DHT22;60282;43.862;18.430;2023-02-18T01:05:23;2.50;99.90
63771;DHT22;60282;43.862;18.430;2023-02-18T01:07:49;2.50;99.90
63771;DHT22;60282;43.862;18.430;2023-02-18T01:10:18;2.50;99.90
63771;DHT22;60282;43.862;18.430;2023-02-18T01:12:44;0.10;99.90
63771;DHT22;60282;43.862;18.430;2023-02-18T01:15:10;2.50;99.90
63771;DHT22;60282;43.862;18.430;2023-02-18T01:17:38;2.60;99.90
63771;DHT22;60282;43.862;18.430;2023-02-18T01:20:04;2.60;99.90
63771;DHT22;60282;43.862;18.430;2023-02-18T01:22:30;2.60;99.90
63771;DHT22;60282;43.862;18.430;2023-02-18T01:24:55;2.60;99.90
63771;DHT22;60282;43.862;18.430;2023-02-18T01:27:21;2.60;99.90
63771;DHT22;60282;43.862;18.430;2023-02-18T01:29:47;2.50;99.90
63771;DHT22;60282;43.862;18.430;2023-02-18T01:32:12;2.50;99.90
63771;DHT22;60282;43.862;18.430;2023-02-18T01:34:38;2.40;99.90
63771;DHT22;60282;43.862;18.430;2023-02-18T01:37:03;2.40;99.90
63771;DHT22;60282;43.862;18.430;2023-02-18T01:39:32;2.30;99.90
63771;DHT22;60282;43.862;18.430;2023-02-18T01:41:58;2.80;99.90
63771;DHT22;60282;43.862;18.430;2023-02-18T01:44:25;2.30;99.90
63771;DHT22;60282;43.862;18.430;2023-02-18T01:46:51;2.70;99.90
63771;DHT22;60282;43.862;18.430;2023-02-18T01:49:18;2.30;99.90
63771;DHT22;60282;43.862;18.430;2023-02-18T01:51:49;2.20;99.90
63771;DHT22;60282;43.862;18.430;2023-02-18T01:54:17;-0.30;99.90
63771;DHT22;60282;43.862;18.430;2023-02-18T01:56:45;2.20;99.90
63771;DHT22;60282;43.862;18.430;2023-02-18T01:59:14;2.20;99.90
63771;DHT22;60282;43.862;18.430;2023-02-18T02:01:41;2.20;99.90
63771;DHT22;60282;43.862;18.430;2023-02-18T02:04:08;2.20;99.90
63771;DHT22;60282;43.862;18.430;2023-02-18T02:06:33;0.30;99.90
63771;DHT22;60282;43.862;18.430;2023-02-18T02:09:00;2.40;99.90
63771;DHT22;60282;43.862;18.430;2023-02-18T02:24:33;2.30;99.90
63771;DHT22;60282;43.862;18.430;2023-02-18T02:27:13;2.30;99.90
63771;DHT22;60282;43.862;18.430;2023-02-18T02:34:57;2.30;99.90
63771;DHT22;60282;43.862;18.430;2023-02-18T02:37:41;2.30;99.90
63771;DHT22;60282;43.862;18.430;2023-02-18T02:53:12;2.40;99.90
63771;DHT22;60282;43.862;18.430;2023-02-18T02:55:39;2.50;99.90
63771;DHT22;60282;43.862;18.430;2023-02-18T02:58:04;2.50;99.90
63771;DHT22;60282;43.862;18.430;2023-02-18T03:00:55;2.50;99.90
63771;DHT22;60282;43.862;18.430;2023-02-18T03:08:36;3.40;99.90
63771;DHT22;60282;43.862;18.430;2023-02-18T03:18:40;2.40;99.90
63771;DHT22;60282;43.862;18.430;2023-02-18T03:23:39;2.30;99.90
63771;DHT22;60282;43.862;18.430;2023-02-18T03:26:07;2.30;99.90
63771;DHT22;60282;43.862;18.430;2023-02-18T03:28:35;2.30;99.90
63771;DHT22;60282;43.862;18.430;2023-02-18T03:31:03;2.20;99.90
63771;DHT22;60282;43.862;18.430;2023-02-18T03:33:33;2.20;99.90
63771;DHT22;60282;43.862;18.430;2023-02-18T03:35:59;2.20;99.90
63771;DHT22;60282;43.862;18.430;2023-02-18T03:38:31;4.20;99.90
63771;DHT22;60282;43.862;18.430;2023-02-18T03:40:58;2.20;99.90
63771;DHT22;60282;43.862;18.430;2023-02-18T03:43:25;2.20;99.90
63771;DHT22;60282;43.862;18.430;2023-02-18T03:45:55;2.20;99.90
63771;DHT22;60282;43.862;18.430;2023-02-18T03:48:21;2.30;99.90
63771;DHT22;60282;43.862;18.430;2023-02-18T03:50:47;2.30;99.90
63771;DHT22;60282;43.862;18.430;2023-02-18T03:53:13;2.30;99.90
63771;DHT22;60282;43.862;18.430;2023-02-18T03:55:38;2.30;99.90
63771;DHT22;60282;43.862;18.430;2023-02-18T03:58:04;2.30;99.90
63771;DHT22;60282;43.862;18.430;2023-02-18T04:00:30;2.30;99.90
63771;DHT22;60282;43.862;18.430;2023-02-18T04:02:55;2.30;99.90
63771;DHT22;60282;43.862;18.430;2023-02-18T04:05:21;2.40;99.90
63771;DHT22;60282;43.862;18.430;2023-02-18T04:07:47;-0.40;99.90
63771;DHT22;60282;43.862;18.430;2023-02-18T04:10:13;2.40;99.90
63771;DHT22;60282;43.862;18.430;2023-02-18T04:12:38;2.50;99.90
63771;DHT22;60282;43.862;18.430;2023-02-18T04:15:04;2.10;99.90
63771;DHT22;60282;43.862;18.430;2023-02-18T04:17:31;2.50;99.90
63771;DHT22;60282;43.862;18.430;2023-02-18T04:19:57;2.80;99.90
63771;DHT22;60282;43.862;18.430;2023-02-18T04:22:22;2.50;99.90
63771;DHT22;60282;43.862;18.430;2023-02-18T04:24:48;2.50;99.90
63771;DHT22;60282;43.862;18.430;2023-02-18T04:27:14;2.50;99.90
63771;DHT22;60282;43.862;18.430;2023-02-18T04:29:40;2.50;99.90
63771;DHT22;60282;43.862;18.430;2023-02-18T04:32:05;2.40;99.90
63771;DHT22;60282;43.862;18.430;2023-02-18T04:34:31;2.30;99.90
63771;DHT22;60282;43.862;18.430;2023-02-18T04:36:57;2.20;99.90
63771;DHT22;60282;43.862;18.430;2023-02-18T04:39:23;2.10;99.90
63771;DHT22;60282;43.862;18.430;2023-02-18T04:41:48;2.10;99.90
63771;DHT22;60282;43.862;18.430;2023-02-18T04:44:14;2.20;99.90
63771;DHT22;60282;43.862;18.430;2023-02-18T04:46:40;2.10;99.90
63771;DHT22;60282;43.862;18.430;2023-02-18T04:49:05;2.10;99.90
63771;DHT22;60282;43.862;18.430;2023-02-18T04:51:31;2.00;99.90
63771;DHT22;60282;43.862;18.430;2023-02-18T04:53:57;2.00;99.90
63771;DHT22;60282;43.862;18.430;2023-02-18T04:56:22;2.00;99.90
63771;DHT22;60282;43.862;18.430;2023-02-18T04:58:48;0.40;99.90
63771;DHT22;60282;43.862;18.430;2023-02-18T05:01:14;2.00;99.90
63771;DHT22;60282;43.862;18.430;2023-02-18T05:03:39;2.10;99.90
63771;DHT22;60282;43.862;18.430;2023-02-18T05:06:05;2.10;99.90
63771;DHT22;60282;43.862;18.430;2023-02-18T05:08:31;2.10;99.90
63771;DHT22;60282;43.862;18.430;2023-02-18T05:10:56;2.10;99.90
63771;DHT22;60282;43.862;18.430;2023-02-18T05:13:23;2.10;99.90
63771;DHT22;60282;43.862;18.430;2023-02-18T05:15:50;2.10;99.90
63771;DHT22;60282;43.862;18.430;2023-02-18T05:18:16;1.70;99.90
63771;DHT22;60282;43.862;18.430;2023-02-18T05:20:42;1.90;99.90
63771;DHT22;60282;43.862;18.430;2023-02-18T05:23:08;1.90;99.90
63771;DHT22;60282;43.862;18.430;2023-02-18T05:25:33;2.00;99.90
63771;DHT22;60282;43.862;18.430;2023-02-18T05:28:00;1.40;99.90
63771;DHT22;60282;43.862;18.430;2023-02-18T05:30:27;4.70;99.90
63771;DHT22;60282;43.862;18.430;2023-02-18T05:32:52;2.00;99.90
63771;DHT22;60282;43.862;18.430;2023-02-18T05:35:18;2.00;99.90
63771;DHT22;60282;43.862;18.430;2023-02-18T05:37:45;2.00;99.90
63771;DHT22;60282;43.862;18.430;2023-02-18T05:40:11;-0.80;99.90
63771;DHT22;60282;43.862;18.430;2023-02-18T05:42:39;2.00;99.90
63771;DHT22;60282;43.862;18.430;2023-02-18T05:45:05;2.00;99.90
63771;DHT22;60282;43.862;18.430;2023-02-18T05:47:31;-0.70;99.90
63771;DHT22;60282;43.862;18.430;2023-02-18T05:49:57;2.10;99.90
63771;DHT22;60282;43.862;18.430;2023-02-18T05:52:22;1.70;99.90
63771;DHT22;60282;43.862;18.430;2023-02-18T05:54:51;3.80;99.90
63771;DHT22;60282;43.862;18.430;2023-02-18T05:57:17;2.10;99.90
63771;DHT22;60282;43.862;18.430;2023-02-18T05:59:43;2.10;99.90
63771;DHT22;60282;43.862;18.430;2023-02-18T06:02:15;2.10;99.90
63771;DHT22;60282;43.862;18.430;2023-02-18T06:04:44;2.10;99.90
63771;DHT22;60282;43.862;18.430;2023-02-18T06:07:11;4.90;99.90
63771;DHT22;60282;43.862;18.430;2023-02-18T06:09:37;3.10;99.90
63771;DHT22;60282;43.862;18.430;2023-02-18T06:12:05;2.20;99.90
63771;DHT22;60282;43.862;18.430;2023-02-18T06:14:31;2.20;99.90
63771;DHT22;60282;43.862;18.430;2023-02-18T06:16:57;2.20;99.90
63771;DHT22;60282;43.862;18.430;2023-02-18T06:19:22;2.30;99.90
63771;DHT22;60282;43.862;18.430;2023-02-18T06:21:48;2.10;99.90
63771;DHT22;60282;43.862;18.430;2023-02-18T06:24:15;2.40;99.90
63771;DHT22;60282;43.862;18.430;2023-02-18T06:26:40;2.40;99.90
63771;DHT22;60282;43.862;18.430;2023-02-18T06:29:08;2.40;99.90
63771;DHT22;60282;43.862;18.430;2023-02-18T06:31:35;2.50;99.90
63771;DHT22;60282;43.862;18.430;2023-02-18T06:34:01;0.60;99.90
63771;DHT22;60282;43.862;18.430;2023-02-18T06:36:27;2.90;99.90
63771;DHT22;60282;43.862;18.430;2023-02-18T06:38:54;3.70;99.90
63771;DHT22;60282;43.862;18.430;2023-02-18T06:41:23;2.50;99.90
63771;DHT22;60282;43.862;18.430;2023-02-18T06:43:48;2.50;99.90
63771;DHT22;60282;43.862;18.430;2023-02-18T06:46:14;2.60;99.90
63771;DHT22;60282;43.862;18.430;2023-02-18T06:48:39;2.60;99.90
63771;DHT22;60282;43.862;18.430;2023-02-18T06:51:09;0.00;99.90
63771;DHT22;60282;43.862;18.430;2023-02-18T06:53:35;2.50;99.90
63771;DHT22;60282;43.862;18.430;2023-02-18T06:56:01;2.50;99.90
63771;DHT22;60282;43.862;18.430;2023-02-18T06:58:30;1.60;99.90
63771;DHT22;60282;43.862;18.430;2023-02-18T07:00:56;2.50;99.90
63771;DHT22;60282;43.862;18.430;2023-02-18T07:03:24;2.60;99.90
63771;DHT22;60282;43.862;18.430;2023-02-18T07:05:49;2.60;99.90
63771;DHT22;60282;43.862;18.430;2023-02-18T07:08:16;2.70;99.90
63771;DHT22;60282;43.862;18.430;2023-02-18T07:10:45;3.00;99.90
63771;DHT22;60282;43.862;18.430;2023-02-18T07:13:17;2.40;99.90
63771;DHT22;60282;43.862;18.430;2023-02-18T07:15:42;3.00;99.90
63771;DHT22;60282;43.862;18.430;2023-02-18T07:18:08;3.10;99.90
63771;DHT22;60282;43.862;18.430;2023-02-18T07:20:35;3.30;99.90
63771;DHT22;60282;43.862;18.430;2023-02-18T07:23:01;2.90;99.90
63771;DHT22;60282;43.862;18.430;2023-02-18T07:25:26;2.50;99.90
63771;DHT22;60282;43.862;18.430;2023-02-18T07:27:52;3.70;99.90
63771;DHT22;60282;43.862;18.430;2023-02-18T07:30:18;3.80;99.90
63771;DHT22;60282;43.862;18.430;2023-02-18T07:32:46;3.90;99.90
63771;DHT22;60282;43.862;18.430;2023-02-18T07:35:12;4.00;99.90
63771;DHT22;60282;43.862;18.430;2023-02-18T07:37:39;4.10;99.90
63771;DHT22;60282;43.862;18.430;2023-02-18T07:40:08;3.70;99.90
63771;DHT22;60282;43.862;18.430;2023-02-18T07:42:34;4.60;99.90
63771;DHT22;60282;43.862;18.430;2023-02-18T07:45:00;4.80;99.90
63771;DHT22;60282;43.862;18.430;2023-02-18T07:47:30;4.80;99.90
63771;DHT22;60282;43.862;18.430;2023-02-18T07:49:59;5.20;99.90
63771;DHT22;60282;43.862;18.430;2023-02-18T07:52:24;3.00;99.90
63771;DHT22;60282;43.862;18.430;2023-02-18T07:54:54;5.50;99.90
63771;DHT22;60282;43.862;18.430;2023-02-18T07:57:21;5.70;99.90
63771;DHT22;60282;43.862;18.430;2023-02-18T07:59:50;5.90;99.90
63771;DHT22;60282;43.862;18.430;2023-02-18T08:02:17;6.00;99.90
63771;DHT22;60282;43.862;18.430;2023-02-18T08:04:43;6.20;99.90
63771;DHT22;60282;43.862;18.430;2023-02-18T08:07:12;6.70;99.90
63771;DHT22;60282;43.862;18.430;2023-02-18T08:09:37;6.60;99.90
63771;DHT22;60282;43.862;18.430;2023-02-18T08:12:04;6.70;99.90
63771;DHT22;60282;43.862;18.430;2023-02-18T08:14:33;6.70;99.90
63771;DHT22;60282;43.862;18.430;2023-02-18T08:16:59;6.90;99.90
63771;DHT22;60282;43.862;18.430;2023-02-18T08:19:24;6.90;99.90
63771;DHT22;60282;43.862;18.430;2023-02-18T08:21:52;7.00;99.90
63771;DHT22;60282;43.862;18.430;2023-02-18T08:24:18;7.20;99.90
63771;DHT22;60282;43.862;18.430;2023-02-18T08:26:43;7.40;99.90
63771;DHT22;60282;43.862;18.430;2023-02-18T08:29:09;7.60;99.90
63771;DHT22;60282;43.862;18.430;2023-02-18T08:31:34;7.70;99.90
63771;DHT22;60282;43.862;18.430;2023-02-18T08:34:00;8.20;99.90
63771;DHT22;60282;43.862;18.430;2023-02-18T08:36:27;8.00;99.90
63771;DHT22;60282;43.862;18.430;2023-02-18T08:38:54;8.10;99.90
63771;DHT22;60282;43.862;18.430;2023-02-18T08:41:20;8.20;99.90
63771;DHT22;60282;43.862;18.430;2023-02-18T08:43:46;8.40;99.90
63771;DHT22;60282;43.862;18.430;2023-02-18T08:46:12;8.60;99.90
63771;DHT22;60282;43.862;18.430;2023-02-18T08:48:46;8.90;99.90
63771;DHT22;60282;43.862;18.430;2023-02-18T08:51:16;9.10;99.90
63771;DHT22;60282;43.862;18.430;2023-02-18T08:53:45;9.10;99.90
63771;DHT22;60282;43.862;18.430;2023-02-18T08:56:16;9.30;99.90
63771;DHT22;60282;43.862;18.430;2023-02-18T08:58:42;9.30;99.90
63771;DHT22;60282;43.862;18.430;2023-02-18T09:01:09;9.40;99.90
63771;DHT22;60282;43.862;18.430;2023-02-18T09:03:35;9.60;99.90
63771;DHT22;60282;43.862;18.430;2023-02-18T09:06:00;9.80;99.90
63771;DHT22;60282;43.862;18.430;2023-02-18T09:08:26;9.90;99.90
63771;DHT22;60282;43.862;18.430;2023-02-18T09:11:03;10.10;99.90
63771;DHT22;60282;43.862;18.430;2023-02-18T09:13:31;10.20;99.90
63771;DHT22;60282;43.862;18.430;2023-02-18T09:16:09;10.40;99.90
63771;DHT22;60282;43.862;18.430;2023-02-18T09:18:40;10.00;99.90
63771;DHT22;60282;43.862;18.430;2023-02-18T09:21:07;10.80;99.90
63771;DHT22;60282;43.862;18.430;2023-02-18T09:23:34;10.90;99.90
63771;DHT22;60282;43.862;18.430;2023-02-18T09:26:03;11.10;99.90
63771;DHT22;60282;43.862;18.430;2023-02-18T09:28:28;11.10;99.90
63771;DHT22;60282;43.862;18.430;2023-02-18T09:30:54;11.10;99.70
63771;DHT22;60282;43.862;18.430;2023-02-18T09:33:20;11.30;99.90
63771;DHT22;60282;43.862;18.430;2023-02-18T09:35:46;11.40;99.30
63771;DHT22;60282;43.862;18.430;2023-02-18T09:38:13;11.50;99.30
63771;DHT22;60282;43.862;18.430;2023-02-18T09:40:43;11.60;98.40
63771;DHT22;60282;43.862;18.430;2023-02-18T09:43:29;11.60;98.10
63771;DHT22;60282;43.862;18.430;2023-02-18T09:45:55;14.10;98.80
63771;DHT22;60282;43.862;18.430;2023-02-18T09:48:24;11.60;98.40
63771;DHT22;60282;43.862;18.430;2023-02-18T09:50:51;11.50;97.10
63771;DHT22;60282;43.862;18.430;2023-02-18T09:53:17;11.40;98.00
63771;DHT22;60282;43.862;18.430;2023-02-18T09:55:43;11.40;98.50
63771;DHT22;60282;43.862;18.430;2023-02-18T10:00:38;11.40;99.60
63771;DHT22;60282;43.862;18.430;2023-02-18T10:03:11;11.50;99.30
63771;DHT22;60282;43.862;18.430;2023-02-18T10:05:37;11.50;98.10
63771;DHT22;60282;43.862;18.430;2023-02-18T10:08:06;11.60;97.60
63771;DHT22;60282;43.862;18.430;2023-02-18T10:10:41;11.60;98.00
63771;DHT22;60282;43.862;18.430;2023-02-18T10:13:14;11.70;98.90
63771;DHT22;60282;43.862;18.430;2023-02-18T10:15:40;11.60;97.10
63771;DHT22;60282;43.862;18.430;2023-02-18T10:18:50;11.60;98.40
63771;DHT22;60282;43.862;18.430;2023-02-18T10:21:03;11.40;97.00
63771;DHT22;60282;43.862;18.430;2023-02-18T10:23:30;11.90;96.60
63771;DHT22;60282;43.862;18.430;2023-02-18T10:26:00;10.70;96.60
63771;DHT22;60282;43.862;18.430;2023-02-18T10:28:27;12.00;96.70
63771;DHT22;60282;43.862;18.430;2023-02-18T10:30:57;12.20;96.50
63771;DHT22;60282;43.862;18.430;2023-02-18T10:35:54;12.60;96.40
63771;DHT22;60282;43.862;18.430;2023-02-18T10:38:30;12.90;98.60
63771;DHT22;60282;43.862;18.430;2023-02-18T10:46:01;13.90;91.70
63771;DHT22;60282;43.862;18.430;2023-02-18T10:51:02;14.20;85.50
63771;DHT22;60282;43.862;18.430;2023-02-18T10:53:36;13.90;85.60
63771;DHT22;60282;43.862;18.430;2023-02-18T10:56:04;13.60;89.50
63771;DHT22;60282;43.862;18.430;2023-02-18T10:58:41;13.30;90.30
63771;DHT22;60282;43.862;18.430;2023-02-18T11:01:12;13.00;91.10
63771;DHT22;60282;43.862;18.430;2023-02-18T11:03:46;13.30;92.00
63771;DHT22;60282;43.862;18.430;2023-02-18T11:08:46;13.30;92.50
63771;DHT22;60282;43.862;18.430;2023-02-18T11:11:31;13.40;91.10
63771;DHT22;60282;43.862;18.430;2023-02-18T11:14:00;13.00;90.20
63771;DHT22;60282;43.862;18.430;2023-02-18T11:19:01;14.00;88.50
63771;DHT22;60282;43.862;18.430;2023-02-18T11:21:30;13.00;82.70
63771;DHT22;60282;43.862;18.430;2023-02-18T11:23:56;14.30;82.10
63771;DHT22;60282;43.862;18.430;2023-02-18T11:26:32;14.50;80.50
63771;DHT22;60282;43.862;18.430;2023-02-18T11:29:04;14.50;80.10
63771;DHT22;60282;43.862;18.430;2023-02-18T11:32:03;14.50;78.00
63771;DHT22;60282;43.862;18.430;2023-02-18T11:34:23;13.40;78.70
63771;DHT22;60282;43.862;18.430;2023-02-18T11:36:52;14.80;78.70
63771;DHT22;60282;43.862;18.430;2023-02-18T11:39:19;14.90;76.90
63771;DHT22;60282;43.862;18.430;2023-02-18T11:41:47;14.80;76.80
63771;DHT22;60282;43.862;18.430;2023-02-18T11:44:21;14.90;77.70
63771;DHT22;60282;43.862;18.430;2023-02-18T11:49:33;15.20;75.00
63771;DHT22;60282;43.862;18.430;2023-02-18T11:52:03;15.00;75.10
63771;DHT22;60282;43.862;18.430;2023-02-18T11:54:30;15.70;73.10
63771;DHT22;60282;43.862;18.430;2023-02-18T11:59:21;15.90;74.00
63771;DHT22;60282;43.862;18.430;2023-02-18T12:01:55;16.10;72.10
63771;DHT22;60282;43.862;18.430;2023-02-18T12:04:28;13.80;69.50
63771;DHT22;60282;43.862;18.430;2023-02-18T12:09:30;16.30;70.00
63771;DHT22;60282;43.862;18.430;2023-02-18T12:12:05;16.20;72.40
63771;DHT22;60282;43.862;18.430;2023-02-18T12:14:31;16.20;69.40
63771;DHT22;60282;43.862;18.430;2023-02-18T12:22:45;16.60;67.20
63771;DHT22;60282;43.862;18.430;2023-02-18T12:28:11;16.90;63.90
63771;DHT22;60282;43.862;18.430;2023-02-18T12:35:51;16.70;63.70
63771;DHT22;60282;43.862;18.430;2023-02-18T12:43:18;16.80;63.20
63771;DHT22;60282;43.862;18.430;2023-02-18T12:48:40;16.90;62.90
63771;DHT22;60282;43.862;18.430;2023-02-18T12:51:22;16.90;63.00
63771;DHT22;60282;43.862;18.430;2023-02-18T12:54:02;14.20;60.90
63771;DHT22;60282;43.862;18.430;2023-02-18T13:04:17;15.90;64.20
63771;DHT22;60282;43.862;18.430;2023-02-18T13:06:47;16.30;64.80
63771;DHT22;60282;43.862;18.430;2023-02-18T13:11:56;16.40;65.20
63771;DHT22;60282;43.862;18.430;2023-02-18T13:14:26;16.50;65.30
63771;DHT22;60282;43.862;18.430;2023-02-18T13:16:54;16.80;65.40
63771;DHT22;60282;43.862;18.430;2023-02-18T13:19:31;14.90;63.20
63771;DHT22;60282;43.862;18.430;2023-02-18T13:22:01;16.90;64.70
63771;DHT22;60282;43.862;18.430;2023-02-18T13:27:42;17.30;63.30
63771;DHT22;60282;43.862;18.430;2023-02-18T13:32:58;17.80;61.60
63771;DHT22;60282;43.862;18.430;2023-02-18T13:40:17;18.00;60.60
63771;DHT22;60282;43.862;18.430;2023-02-18T13:42:44;18.10;59.80
63771;DHT22;60282;43.862;18.430;2023-02-18T13:45:22;18.00;59.30
63771;DHT22;60282;43.862;18.430;2023-02-18T13:47:49;17.70;59.60
63771;DHT22;60282;43.862;18.430;2023-02-18T13:52:49;20.30;62.00
63771;DHT22;60282;43.862;18.430;2023-02-18T13:58:01;18.20;59.50
63771;DHT22;60282;43.862;18.430;2023-02-18T14:00:33;18.40;59.30
63771;DHT22;60282;43.862;18.430;2023-02-18T14:03:01;18.00;60.40
63771;DHT22;60282;43.862;18.430;2023-02-18T14:05:39;17.60;60.70
63771;DHT22;60282;43.862;18.430;2023-02-18T14:08:12;17.30;61.50
63771;DHT22;60282;43.862;18.430;2023-02-18T14:10:38;17.30;61.70
63771;DHT22;60282;43.862;18.430;2023-02-18T14:15:47;17.70;62.00
63771;DHT22;60282;43.862;18.430;2023-02-18T14:31:17;18.20;60.50
63771;DHT22;60282;43.862;18.430;2023-02-18T14:33:48;18.20;61.30
63771;DHT22;60282;43.862;18.430;2023-02-18T14:51:57;18.40;60.90
63771;DHT22;60282;43.862;18.430;2023-02-18T14:54:24;18.50;61.00
63771;DHT22;60282;43.862;18.430;2023-02-18T14:56:52;18.30;61.10
63771;DHT22;60282;43.862;18.430;2023-02-18T14:59:18;18.20;61.00
63771;DHT22;60282;43.862;18.430;2023-02-18T15:01:45;17.90;62.10
63771;DHT22;60282;43.862;18.430;2023-02-18T15:04:12;17.50;62.90
63771;DHT22;60282;43.862;18.430;2023-02-18T15:06:38;17.30;63.20
63771;DHT22;60282;43.862;18.430;2023-02-18T15:09:19;16.90;64.50
63771;DHT22;60282;43.862;18.430;2023-02-18T15:11:47;16.50;65.80
63771;DHT22;60282;43.862;18.430;2023-02-18T15:14:15;16.30;66.90
63771;DHT22;60282;43.862;18.430;2023-02-18T15:16:43;15.40;68.00
63771;DHT22;60282;43.862;18.430;2023-02-18T15:19:13;15.70;70.20
63771;DHT22;60282;43.862;18.430;2023-02-18T15:21:41;15.50;71.50
63771;DHT22;60282;43.862;18.430;2023-02-18T15:24:08;15.30;74.20
63771;DHT22;60282;43.862;18.430;2023-02-18T15:26:35;15.30;75.50
63771;DHT22;60282;43.862;18.430;2023-02-18T15:29:11;15.10;77.60
63771;DHT22;60282;43.862;18.430;2023-02-18T15:31:39;14.90;80.20
63771;DHT22;60282;43.862;18.430;2023-02-18T15:34:16;14.60;83.90
63771;DHT22;60282;43.862;18.430;2023-02-18T15:36:49;14.50;84.10
63771;DHT22;60282;43.862;18.430;2023-02-18T15:39:14;14.40;87.50
63771;DHT22;60282;43.862;18.430;2023-02-18T15:41:40;14.30;89.70
63771;DHT22;60282;43.862;18.430;2023-02-18T15:44:06;14.20;89.40
63771;DHT22;60282;43.862;18.430;2023-02-18T15:46:32;14.10;90.00
63771;DHT22;60282;43.862;18.430;2023-02-18T15:48:58;14.10;90.30
63771;DHT22;60282;43.862;18.430;2023-02-18T15:51:26;14.00;90.60
63771;DHT22;60282;43.862;18.430;2023-02-18T15:53:53;13.90;92.00
63771;DHT22;60282;43.862;18.430;2023-02-18T15:56:23;13.70;92.30
63771;DHT22;60282;43.862;18.430;2023-02-18T15:58:55;13.60;92.60
63771;DHT22;60282;43.862;18.430;2023-02-18T16:01:25;13.40;94.10
63771;DHT22;60282;43.862;18.430;2023-02-18T16:03:51;11.60;94.40
63771;DHT22;60282;43.862;18.430;2023-02-18T16:06:21;13.20;96.40
63771;DHT22;60282;43.862;18.430;2023-02-18T16:11:24;13.20;98.20
63771;DHT22;60282;43.862;18.430;2023-02-18T16:13:51;12.80;98.70
63771;DHT22;60282;43.862;18.430;2023-02-18T16:16:35;12.60;99.10
63771;DHT22;60282;43.862;18.430;2023-02-18T16:19:01;12.50;99.30
63771;DHT22;60282;43.862;18.430;2023-02-18T16:21:32;12.30;99.70
63771;DHT22;60282;43.862;18.430;2023-02-18T16:24:02;12.20;99.90
63771;DHT22;60282;43.862;18.430;2023-02-18T16:29:41;12.00;99.90
63771;DHT22;60282;43.862;18.430;2023-02-18T16:31:47;11.80;99.90
63771;DHT22;60282;43.862;18.430;2023-02-18T16:34:16;11.50;99.90
63771;DHT22;60282;43.862;18.430;2023-02-18T16:36:42;8.40;99.90
63771;DHT22;60282;43.862;18.430;2023-02-18T16:39:28;11.20;99.90
63771;DHT22;60282;43.862;18.430;2023-02-18T16:41:54;11.00;99.90
63771;DHT22;60282;43.862;18.430;2023-02-18T16:44:19;10.80;99.90
63771;DHT22;60282;43.862;18.430;2023-02-18T16:46:45;10.70;99.90
63771;DHT22;60282;43.862;18.430;2023-02-18T16:49:11;10.40;99.90
63771;DHT22;60282;43.862;18.430;2023-02-18T16:51:37;10.20;99.90
63771;DHT22;60282;43.862;18.430;2023-02-18T16:54:03;10.10;99.90
63771;DHT22;60282;43.862;18.430;2023-02-18T16:56:30;9.70;99.90
63771;DHT22;60282;43.862;18.430;2023-02-18T16:58:56;9.70;99.90
63771;DHT22;60282;43.862;18.430;2023-02-18T17:01:32;9.90;99.90
63771;DHT22;60282;43.862;18.430;2023-02-18T17:04:00;7.50;99.90
63771;DHT22;60282;43.862;18.430;2023-02-18T17:06:26;9.30;99.90
63771;DHT22;60282;43.862;18.430;2023-02-18T17:08:54;9.30;99.90
63771;DHT22;60282;43.862;18.430;2023-02-18T17:13:50;8.80;99.90
63771;DHT22;60282;43.862;18.430;2023-02-18T17:16:17;9.10;99.90
63771;DHT22;60282;43.862;18.430;2023-02-18T17:18:43;7.30;99.90
63771;DHT22;60282;43.862;18.430;2023-02-18T17:21:13;8.90;99.90
63771;DHT22;60282;43.862;18.430;2023-02-18T17:23:38;9.40;99.90
63771;DHT22;60282;43.862;18.430;2023-02-18T17:26:04;8.60;99.90
63771;DHT22;60282;43.862;18.430;2023-02-18T17:28:35;8.40;99.90
63771;DHT22;60282;43.862;18.430;2023-02-18T17:31:01;8.80;99.90
63771;DHT22;60282;43.862;18.430;2023-02-18T17:33:27;8.20;99.90
63771;DHT22;60282;43.862;18.430;2023-02-18T17:35:53;8.10;99.90
63771;DHT22;60282;43.862;18.430;2023-02-18T17:38:18;8.10;99.90
63771;DHT22;60282;43.862;18.430;2023-02-18T17:40:51;8.00;99.90
63771;DHT22;60282;43.862;18.430;2023-02-18T17:43:19;8.00;99.90
63771;DHT22;60282;43.862;18.430;2023-02-18T17:45:51;7.90;99.90
63771;DHT22;60282;43.862;18.430;2023-02-18T17:48:17;7.90;99.90
63771;DHT22;60282;43.862;18.430;2023-02-18T17:50:43;7.80;99.90
63771;DHT22;60282;43.862;18.430;2023-02-18T17:53:10;7.60;99.90
63771;DHT22;60282;43.862;18.430;2023-02-18T17:55:37;7.40;99.90
63771;DHT22;60282;43.862;18.430;2023-02-18T17:58:04;7.50;99.90
63771;DHT22;60282;43.862;18.430;2023-02-18T18:00:31;7.50;99.90
63771;DHT22;60282;43.862;18.430;2023-02-18T18:03:01;7.50;99.90
63771;DHT22;60282;43.862;18.430;2023-02-18T18:05:34;7.40;99.90
63771;DHT22;60282;43.862;18.430;2023-02-18T18:08:00;7.40;99.90
63771;DHT22;60282;43.862;18.430;2023-02-18T18:10:27;6.90;99.90